Time;durP1;ratioP1;P1;durP2;ratioP2;P2;SDS_P1;SDS_P2;PMS_P1;PMS_P2;Temp;Humidity;BMP_temperature;BMP_pressure;BME280_temperature;BME280_humidity;BME280_pressure;Samples;Min_cycle;Max_cycle;Signal;HPM_P1;HPM_P2
2022/01/10 00:00:53;;;;;;;15.50;6.25;;;;;;;5.50;100.00;93447.41;5059018;28;20048;-54
2022/01/10 00:03:22;;;;;;;20.48;6.65;;;;;;;5.45;100.00;93449.91;5055851;28;20558;-53
2022/01/10 00:05:50;;;;;;;14.30;6.18;;;;;;;5.39;100.00;93440.53;5062917;28;20044;-55
2022/01/10 00:08:17;;;;;;;14.68;6.93;;;;;;;5.47;100.00;93453.03;5057015;28;20037;-56
2022/01/10 00:10:45;;;;;;;15.05;6.85;;;;;;;5.49;100.00;93451.03;5057732;28;20040;-53
2022/01/10 00:13:12;;;;;;;18.67;7.13;;;;;;;5.51;100.00;93450.78;5056289;28;20075;-53
2022/01/10 00:15:40;;;;;;;16.88;7.75;;;;;;;5.54;100.00;93453.69;5059333;28;20045;-55
2022/01/10 00:18:07;;;;;;;20.73;8.50;;;;;;;5.55;100.00;93444.91;5057195;28;20460;-53
2022/01/10 00:20:34;;;;;;;16.35;7.53;;;;;;;5.57;100.00;93446.50;5056100;28;20049;-55
2022/01/10 00:23:01;;;;;;;20.65;7.50;;;;;;;5.59;100.00;93455.56;5060464;28;20051;-54
2022/01/10 00:25:28;;;;;;;16.75;7.25;;;;;;;5.56;100.00;93450.88;5056697;28;20041;-53
2022/01/10 00:27:56;;;;;;;13.18;6.03;;;;;;;5.60;100.00;93448.59;5053998;28;20485;-53
2022/01/10 00:30:24;;;;;;;13.88;6.60;;;;;;;5.61;100.00;93447.59;5054435;28;20425;-54
2022/01/10 00:32:52;;;;;;;16.75;7.63;;;;;;;5.60;100.00;93451.19;5055065;28;20052;-55
2022/01/10 00:35:20;;;;;;;18.58;8.00;;;;;;;5.64;100.00;93441.97;5053712;28;20483;-52
2022/01/10 00:37:47;;;;;;;17.67;7.32;;;;;;;5.65;100.00;93451.28;5061939;28;20786;-54
2022/01/10 00:40:16;;;;;;;11.77;6.45;;;;;;;5.63;100.00;93448.13;5057887;28;20052;-54
2022/01/10 00:42:52;;;;;;;16.52;6.68;;;;;;;5.64;100.00;93441.97;5059561;28;20043;-54
2022/01/10 00:45:23;;;;;;;16.17;7.82;;;;;;;5.67;100.00;93446.66;5060727;28;20055;-54
2022/01/10 00:47:50;;;;;;;14.05;7.10;;;;;;;5.66;100.00;93450.25;5058205;28;20106;-54
2022/01/10 00:50:17;;;;;;;13.38;6.75;;;;;;;5.66;100.00;93450.25;5060463;28;20490;-52
2022/01/10 00:52:45;;;;;;;16.77;7.18;;;;;;;5.66;100.00;93445.09;5057727;28;20080;-54
2022/01/10 00:55:12;;;;;;;14.55;6.95;;;;;;;5.69;100.00;93444.59;5055612;28;20059;-54
2022/01/10 00:57:39;;;;;;;19.38;7.43;;;;;;;5.68;100.00;93443.06;5056789;28;20509;-51
2022/01/10 01:00:09;;;;;;;18.95;7.93;;;;;;;5.64;100.00;93441.97;5092700;27;20049;-52
2022/01/10 01:02:36;;;;;;;18.75;7.75;;;;;;;5.59;100.00;93437.50;5058870;28;20074;-53
2022/01/10 01:05:07;;;;;;;18.23;7.30;;;;;;;5.61;100.00;93443.19;5056794;28;20529;-54
2022/01/10 01:07:35;;;;;;;16.25;7.40;;;;;;;5.59;100.00;93444.47;5059332;28;20084;-54
2022/01/10 01:10:37;;;;;;;13.50;6.65;;;;;;;5.60;100.00;93435.69;5056844;28;20119;-51
2022/01/10 01:13:02;;;;;;;15.68;7.75;;;;;;;5.60;100.00;93446.00;5058324;28;20045;-54
2022/01/10 01:15:32;;;;;;;16.80;8.18;;;;;;;5.60;100.00;93438.25;5058237;28;20453;-54
2022/01/10 01:26:03;;;;;;;18.90;7.10;;;;;;;5.59;100.00;93434.13;5056016;28;20522;-50
2022/01/10 01:28:31;;;;;;;22.50;8.45;;;;;;;5.59;100.00;93436.72;5060882;28;20045;-56
2022/01/10 01:30:58;;;;;;;17.60;7.00;;;;;;;5.54;100.00;93425.25;5058038;28;20048;-53
2022/01/10 01:33:25;;;;;;;16.80;7.43;;;;;;;5.54;100.00;93421.91;5062050;28;20129;-54
2022/01/10 01:35:53;;;;;;;14.45;6.78;;;;;;;5.48;100.00;93426.22;5062498;28;20036;-55
2022/01/10 01:38:22;;;;;;;13.43;6.45;;;;;;;5.45;100.00;93418.91;5061109;28;20041;-50
2022/01/10 01:40:57;;;;;;;15.52;6.35;;;;;;;5.41;100.00;93412.66;5060663;28;20068;-56
2022/01/10 01:43:23;;;;;;;15.32;7.28;;;;;;;5.44;100.00;93412.22;5062786;28;20506;-55
2022/01/10 01:45:51;;;;;;;16.40;7.03;;;;;;;5.47;100.00;93416.88;5061262;28;20096;-51
2022/01/10 01:48:18;;;;;;;16.27;8.02;;;;;;;5.48;100.00;93413.28;5061187;28;20044;-52
2022/01/10 01:50:45;;;;;;;15.45;7.25;;;;;;;5.50;100.00;93415.66;5061724;28;20040;-54
2022/01/10 01:53:13;;;;;;;12.75;7.25;;;;;;;5.53;100.00;93412.63;5063976;28;20049;-53
2022/01/10 01:55:40;;;;;;;18.63;8.02;;;;;;;5.50;100.00;93416.44;5063291;28;20094;-53
2022/01/10 01:58:07;;;;;;;15.57;6.93;;;;;;;5.52;100.00;93409.22;5062041;28;20052;-51
2022/01/10 02:00:34;;;;;;;14.63;7.00;;;;;;;5.54;100.00;93401.25;5060779;28;20099;-54
2022/01/10 02:03:02;;;;;;;14.77;6.40;;;;;;;5.53;100.00;93400.47;5065848;28;20059;-55
2022/01/10 02:05:31;;;;;;;16.85;7.65;;;;;;;5.57;100.00;93415.50;5060166;28;20037;-55
2022/01/10 02:07:58;;;;;;;15.90;7.15;;;;;;;5.59;100.00;93408.31;5065860;28;20047;-52
2022/01/10 02:10:26;;;;;;;17.73;8.20;;;;;;;5.60;100.00;93415.03;5059721;28;20579;-55
2022/01/10 02:12:54;;;;;;;14.75;7.75;;;;;;;5.59;100.00;93408.31;5060562;28;20056;-50
2022/01/10 02:15:31;;;;;;;22.50;7.97;;;;;;;5.55;100.00;93408.75;5057730;28;20047;-53
2022/01/10 02:18:01;;;;;;;25.17;9.45;;;;;;;5.51;100.00;93402.50;5066465;28;20433;-54
2022/01/10 02:20:32;;;;;;;33.67;12.52;;;;;;;5.46;100.00;93409.41;5060330;28;20520;-52
2022/01/10 02:23:01;;;;;;;23.10;11.30;;;;;;;5.49;100.00;93399.38;5063932;28;20409;-54
2022/01/10 02:25:49;;;;;;;19.85;9.32;;;;;;;5.40;100.00;93395.59;5064105;28;20441;-50
2022/01/10 02:28:23;;;;;;;15.00;6.95;;;;;;;5.49;100.00;93407.13;5064276;28;20518;-54
2022/01/10 02:30:57;;;;;;;11.00;5.22;;;;;;;5.46;100.00;93401.66;5064605;28;20498;-55
2022/01/10 02:33:28;;;;;;;10.35;4.22;;;;;;;5.39;100.00;93403.59;5062283;28;20102;-53
2022/01/10 02:38:23;;;;;;;12.00;4.78;;;;;;;5.35;100.00;93398.13;5063459;28;20068;-50
2022/01/10 02:40:52;;;;;;;7.32;3.90;;;;;;;5.33;100.00;93405.28;5063532;28;20044;-54
2022/01/10 02:43:19;;;;;;;9.73;3.83;;;;;;;5.30;100.00;93400.59;5063566;28;20046;-53
2022/01/10 02:45:47;;;;;;;8.63;4.03;;;;;;;5.28;100.00;93397.47;5063697;28;20127;-52
2022/01/10 02:48:14;;;;;;;4.90;3.28;;;;;;;5.25;100.00;93397.94;5072009;28;20113;-51
2022/01/10 02:50:42;;;;;;;5.85;3.35;;;;;;;5.28;100.00;93398.25;5063937;28;20048;-55
2022/01/10 02:53:09;;;;;;;6.80;3.08;;;;;;;5.31;100.00;93397.00;5067149;28;20044;-55
2022/01/10 02:55:38;;;;;;;5.88;2.88;;;;;;;5.24;100.00;93396.34;5062714;28;20048;-53
2022/01/10 02:58:05;;;;;;;6.90;2.92;;;;;;;5.33;100.00;93400.13;5062306;28;20048;-53
2022/01/10 03:00:32;;;;;;;5.32;2.72;;;;;;;5.33;100.00;93400.13;5060829;28;20052;-53
2022/01/10 03:02:59;;;;;;;4.30;2.67;;;;;;;5.32;100.00;93403.75;5064232;28;20041;-54
2022/01/10 03:05:27;;;;;;;10.65;3.03;;;;;;;5.31;100.00;93412.50;5063054;28;20124;-55
2022/01/10 03:07:56;;;;;;;4.57;2.85;;;;;;;5.34;100.00;93409.44;5064938;28;20041;-53
2022/01/10 03:10:23;;;;;;;5.63;2.80;;;;;;;5.33;100.00;93411.25;5068612;28;20041;-53
2022/01/10 03:12:50;;;;;;;6.53;3.13;;;;;;;5.28;100.00;93400.84;5063296;28;20494;-53
2022/01/10 03:15:18;;;;;;;4.95;2.97;;;;;;;5.28;100.00;93413.75;5064310;28;20036;-55
2022/01/10 03:17:47;;;;;;;6.88;3.75;;;;;;;5.28;100.00;93408.59;5062514;28;20403;-55
2022/01/10 03:20:14;;;;;;;7.55;3.58;;;;;;;5.26;100.00;93405.47;5064982;28;20052;-52
2022/01/10 03:22:41;;;;;;;6.53;3.17;;;;;;;5.24;100.00;93406.69;5066543;28;20054;-54
2022/01/10 03:25:10;;;;;;;3.97;2.60;;;;;;;5.24;100.00;93406.69;5062981;28;20048;-53
2022/01/10 03:27:41;;;;;;;5.75;3.05;;;;;;;5.16;100.00;93406.03;5063480;28;20048;-55
2022/01/10 03:30:10;;;;;;;5.47;2.25;;;;;;;5.24;100.00;93411.84;5065436;28;20127;-55
2022/01/10 03:32:38;;;;;;;3.22;1.85;;;;;;;5.23;100.00;93399.97;5067018;28;20052;-52
2022/01/10 03:35:16;;;;;;;3.85;1.83;;;;;;;5.21;100.00;93402.00;5063320;28;20090;-54
2022/01/10 03:37:43;;;;;;;4.78;2.38;;;;;;;5.18;100.00;93398.06;5065054;28;20094;-55
2022/01/10 03:40:10;;;;;;;2.92;2.13;;;;;;;5.20;100.00;93401.19;5065627;28;20048;-52
2022/01/10 03:42:38;;;;;;;7.50;3.53;;;;;;;5.10;100.00;93401.81;5063817;28;20442;-55
2022/01/10 03:45:06;;;;;;;4.10;2.00;;;;;;;5.15;100.00;93409.66;5061611;28;20044;-54
2022/01/10 03:47:33;;;;;;;3.63;2.28;;;;;;;5.08;100.00;93413.41;5063179;28;20711;-54
2022/01/10 03:50:01;;;;;;;2.38;1.40;;;;;;;5.09;100.00;93405.41;5062156;28;20040;-55
2022/01/10 03:52:28;;;;;;;4.55;2.85;;;;;;;5.10;100.00;93408.78;5063799;28;20483;-53
2022/01/10 03:54:55;;;;;;;3.83;1.80;;;;;;;5.11;100.00;93413.72;5064018;28;20057;-54
2022/01/10 03:57:22;;;;;;;5.35;2.40;;;;;;;5.09;100.00;93410.56;5064505;28;20136;-52
2022/01/10 03:59:49;;;;;;;3.92;2.28;;;;;;;5.09;100.00;93418.31;5065752;28;20064;-54
2022/01/10 04:02:16;;;;;;;4.32;1.88;;;;;;;5.08;100.00;93413.41;5064438;28;20048;-54
2022/01/10 04:04:43;;;;;;;4.68;2.00;;;;;;;5.02;100.00;93415.09;5068447;28;20048;-55
2022/01/10 04:07:12;;;;;;;3.00;1.45;;;;;;;5.03;100.00;93416.66;5062568;28;20032;-55
2022/01/10 04:09:39;;;;;;;2.88;1.75;;;;;;;5.02;100.00;93424.63;5067958;28;20049;-54
2022/01/10 04:12:06;;;;;;;4.93;1.60;;;;;;;4.96;100.00;93423.75;5061562;28;20064;-54
2022/01/10 04:14:34;;;;;;;4.55;2.13;;;;;;;5.00;100.00;93430.03;5061859;28;20114;-55
2022/01/10 04:17:02;;;;;;;3.75;2.17;;;;;;;5.01;100.00;93429.03;5064292;28;20097;-55
2022/01/10 04:19:29;;;;;;;3.15;2.00;;;;;;;5.02;100.00;93435.72;5068726;28;20502;-51
2022/01/10 04:21:55;;;;;;;5.03;2.00;;;;;;;5.03;100.00;93437.31;5063392;28;20048;-52
2022/01/10 04:24:22;;;;;;;6.18;1.80;;;;;;;5.04;100.00;93438.88;5063321;28;20044;-54
2022/01/10 04:26:49;;;;;;;2.53;1.50;;;;;;;5.07;100.00;93443.56;5062007;28;20048;-50
2022/01/10 04:29:18;;;;;;;10.05;1.45;;;;;;;5.07;100.00;93446.16;5061882;28;20052;-55
2022/01/10 04:31:45;;;;;;;4.90;2.58;;;;;;;5.03;100.00;93445.03;5065482;28;20143;-55
2022/01/10 04:34:15;;;;;;;2.80;1.17;;;;;;;5.09;100.00;93457.03;5066023;28;20049;-53
2022/01/10 04:36:43;;;;;;;3.78;1.10;;;;;;;5.10;100.00;93460.41;5065135;28;20044;-55
2022/01/10 04:39:11;;;;;;;2.72;1.52;;;;;;;5.10;100.00;93468.16;5062413;28;20045;-54
2022/01/10 04:41:40;;;;;;;2.85;1.50;;;;;;;5.05;100.00;93461.09;5061006;28;20098;-54
2022/01/10 04:44:07;;;;;;;3.88;1.67;;;;;;;5.09;100.00;93462.19;5060439;28;20135;-54
2022/01/10 04:46:34;;;;;;;3.55;1.80;;;;;;;5.13;100.00;93473.63;5060071;28;20044;-54
2022/01/10 04:49:03;;;;;;;4.35;2.00;;;;;;;5.11;100.00;93465.34;5064158;28;20044;-55
2022/01/10 04:51:32;;;;;;;5.85;1.60;;;;;;;5.15;100.00;93474.19;5069048;28;20076;-55
2022/01/10 04:53:59;;;;;;;6.03;2.28;;;;;;;5.15;100.00;93476.75;5064320;28;20141;-52
2022/01/10 04:56:27;;;;;;;3.67;2.08;;;;;;;5.12;100.00;93477.22;5061328;28;20046;-52
2022/01/10 04:58:54;;;;;;;3.47;1.80;;;;;;;5.10;100.00;93474.09;5061193;28;20047;-55
2022/01/10 05:01:22;;;;;;;7.18;3.28;;;;;;;5.13;100.00;93468.47;5065015;28;20040;-55
2022/01/10 05:03:53;;;;;;;11.95;6.63;;;;;;;5.01;100.00;93459.22;5064136;28;20044;-52
2022/01/10 05:06:20;;;;;;;9.68;6.35;;;;;;;5.12;100.00;93477.22;5064043;28;20097;-55
2022/01/10 05:08:49;;;;;;;7.38;3.92;;;;;;;5.15;100.00;93476.75;5061198;28;20585;-52
2022/01/10 05:11:27;;;;;;;6.13;2.25;;;;;;;5.19;100.00;93476.31;5061084;28;20056;-55
2022/01/10 05:13:54;;;;;;;4.03;2.85;;;;;;;5.20;100.00;93488.19;5064860;28;20051;-54
2022/01/10 05:16:21;;;;;;;3.72;1.95;;;;;;;5.19;100.00;93481.47;5060983;28;20039;-55
2022/01/10 05:18:49;;;;;;;6.40;2.50;;;;;;;5.22;100.00;93486.97;5060696;28;20079;-52
2022/01/10 05:21:17;;;;;;;5.75;2.17;;;;;;;5.22;100.00;93481.00;5061343;28;20307;-55
2022/01/10 05:23:44;;;;;;;4.22;2.45;;;;;;;5.17;100.00;93479.91;5060807;28;20127;-56
2022/01/10 05:26:11;;;;;;;3.70;2.13;;;;;;;5.14;100.00;93480.34;5060951;28;20044;-53
2022/01/10 05:28:39;;;;;;;10.23;3.75;;;;;;;5.14;100.00;93480.34;5060613;28;20374;-55
2022/01/10 05:31:06;;;;;;;6.97;2.80;;;;;;;5.08;100.00;93476.13;5060641;28;20059;-55
2022/01/10 05:33:45;;;;;;;5.10;3.10;;;;;;;5.07;100.00;93484.09;5062416;28;20052;-55
2022/01/10 05:36:12;;;;;;;6.38;3.58;;;;;;;5.06;100.00;93478.16;5062106;28;20037;-53
2022/01/10 05:38:41;;;;;;;8.25;4.35;;;;;;;5.03;100.00;93493.31;5060693;28;20041;-52
2022/01/10 05:41:08;;;;;;;16.17;8.18;;;;;;;4.98;100.00;93486.25;5060536;28;20048;-54
2022/01/10 05:43:35;;;;;;;22.20;11.65;;;;;;;5.01;100.00;93500.50;5060659;28;20045;-52
2022/01/10 05:46:06;;;;;;;30.60;16.20;;;;;;;4.98;100.00;93491.41;5060343;28;20418;-53
2022/01/10 05:48:36;;;;;;;28.80;15.45;;;;;;;4.95;100.00;93502.16;5062032;28;20451;-54
2022/01/10 05:51:03;;;;;;;10.77;6.20;;;;;;;4.96;100.00;93508.91;5062552;28;20045;-55
2022/01/10 05:53:34;;;;;;;4.13;2.88;;;;;;;5.01;100.00;93500.50;5066803;28;20044;-55
2022/01/10 05:56:01;;;;;;;5.70;3.55;;;;;;;5.02;100.00;93502.81;5060810;28;20052;-55
2022/01/10 05:58:33;;;;;;;6.28;3.38;;;;;;;4.99;100.00;93503.31;5071144;28;20045;-54
2022/01/10 06:01:00;;;;;;;8.40;3.53;;;;;;;4.96;100.00;93506.31;5066897;28;20040;-55
2022/01/10 06:03:27;;;;;;;7.75;4.10;;;;;;;4.93;100.00;93509.34;5065535;28;20102;-55
2022/01/10 06:06:02;;;;;;;5.53;2.80;;;;;;;4.92;100.00;93508.56;5063211;28;20094;-54
2022/01/10 06:08:29;;;;;;;7.45;3.17;;;;;;;4.90;100.00;93502.09;5065463;28;20048;-53
2022/01/10 06:10:55;;;;;;;5.65;3.63;;;;;;;4.94;100.00;93510.94;5061907;28;20482;-53
2022/01/10 06:13:31;;;;;;;5.55;3.13;;;;;;;4.92;100.00;93518.13;5063720;28;20152;-55
2022/01/10 06:15:58;;;;;;;5.90;3.15;;;;;;;4.96;100.00;93519.22;5063905;28;20047;-55
2022/01/10 06:18:25;;;;;;;6.20;3.50;;;;;;;4.97;100.00;93521.59;5066092;28;20131;-53
2022/01/10 06:20:52;;;;;;;7.00;3.20;;;;;;;5.02;100.00;93518.31;5065716;28;20070;-54
2022/01/10 06:23:19;;;;;;;6.78;3.55;;;;;;;5.03;100.00;93525.03;5063176;28;20054;-54
2022/01/10 06:25:46;;;;;;;6.40;3.35;;;;;;;5.01;100.00;93521.91;5062990;28;20063;-54
2022/01/10 06:28:15;;;;;;;9.80;2.83;;;;;;;5.06;100.00;93519.44;5063064;28;20131;-52
2022/01/10 06:30:44;;;;;;;8.82;3.50;;;;;;;5.10;100.00;93524.94;5063415;28;20123;-53
2022/01/10 06:33:12;;;;;;;7.00;4.13;;;;;;;5.13;100.00;93519.28;5064112;28;20056;-52
2022/01/10 06:35:39;;;;;;;6.85;4.05;;;;;;;5.15;100.00;93520.66;5062049;28;20110;-55
2022/01/10 06:38:06;;;;;;;9.15;2.88;;;;;;;5.12;100.00;93523.66;5057715;28;20045;-53
2022/01/10 06:40:36;;;;;;;7.15;3.75;;;;;;;5.21;100.00;93536.22;5061716;28;20476;-54
2022/01/10 06:43:04;;;;;;;5.88;2.72;;;;;;;5.21;100.00;93533.66;5092108;28;20046;-53
2022/01/10 06:45:34;;;;;;;7.13;4.45;;;;;;;5.09;100.00;93529.28;5062362;28;20070;-52
2022/01/10 06:48:02;;;;;;;19.80;11.02;;;;;;;5.24;100.00;93540.91;5061691;28;20063;-53
2022/01/10 06:50:31;;;;;;;72.05;33.80;;;;;;;5.29;100.00;93543.59;5057548;28;20526;-53
2022/01/10 06:52:58;;;;;;;28.48;16.98;;;;;;;5.35;100.00;93547.88;5066387;28;20105;-54
2022/01/10 06:55:28;;;;;;;21.73;13.82;;;;;;;5.37;100.00;93545.84;5060358;28;20584;-54
2022/01/10 06:57:58;;;;;;;11.02;6.18;;;;;;;5.31;100.00;93547.53;5063139;28;20535;-55
2022/01/10 07:00:26;;;;;;;8.85;4.90;;;;;;;5.33;100.00;93555.84;5057913;28;20103;-53
2022/01/10 07:02:56;;;;;;;25.92;11.88;;;;;;;5.34;100.00;93546.28;5061971;28;20051;-50
2022/01/10 07:05:25;;;;;;;18.40;9.65;;;;;;;5.33;100.00;93555.03;5057935;28;20182;-54
2022/01/10 07:07:59;;;;;;;14.63;6.32;;;;;;;5.36;100.00;93557.16;5056565;28;20055;-55
2022/01/10 07:10:34;;;;;;;13.50;7.00;;;;;;;5.42;100.00;93558.84;5062803;28;20055;-53
2022/01/10 07:13:01;;;;;;;16.48;9.00;;;;;;;5.46;100.00;93567.69;5061237;28;20052;-51
2022/01/10 07:15:29;;;;;;;9.50;6.80;;;;;;;5.43;100.00;93551.88;5061062;28;20597;-51
2022/01/10 07:18:00;;;;;;;9.63;5.40;;;;;;;5.48;100.00;93565.66;5061649;28;20472;-55
2022/01/10 07:20:32;;;;;;;8.77;4.03;;;;;;;5.49;100.00;93564.66;5060771;28;20164;-51
2022/01/10 07:22:59;;;;;;;6.57;3.28;;;;;;;5.44;100.00;93559.41;5063214;28;20097;-54
2022/01/10 07:25:26;;;;;;;8.48;4.75;;;;;;;5.45;100.00;93566.13;5066139;28;20040;-52
2022/01/10 07:27:53;;;;;;;11.50;4.55;;;;;;;5.27;100.00;93548.22;5064827;28;20041;-53
2022/01/10 07:30:20;;;;;;;17.05;5.80;;;;;;;5.49;100.00;93574.19;5056716;28;21046;-55
2022/01/10 07:32:47;;;;;;;9.40;4.32;;;;;;;5.51;100.00;93572.16;5058941;28;20415;-56
2022/01/10 07:35:14;;;;;;;10.95;4.65;;;;;;;5.51;100.00;93578.13;5058756;28;20056;-55
2022/01/10 07:37:41;;;;;;;9.55;4.18;;;;;;;5.51;100.00;93572.97;5062264;28;20514;-54
2022/01/10 07:40:08;;;;;;;10.07;5.50;;;;;;;5.52;100.00;93578.91;5060333;28;20044;-55
2022/01/10 07:42:35;;;;;;;8.35;4.40;;;;;;;5.51;100.00;93572.97;5059316;28;20051;-54
2022/01/10 07:45:08;;;;;;;8.02;4.90;;;;;;;5.51;100.00;93578.13;5058355;28;20095;-52
2022/01/10 07:47:36;;;;;;;9.07;4.05;;;;;;;5.60;100.00;93575.97;5062481;28;20040;-53
2022/01/10 07:50:04;;;;;;;9.32;5.00;;;;;;;5.60;100.00;93580.31;5063674;28;20049;-52
2022/01/10 07:52:31;;;;;;;10.18;4.50;;;;;;;5.61;100.00;93589.66;5065856;28;20394;-54
2022/01/10 07:54:58;;;;;;;7.53;4.15;;;;;;;5.63;100.00;93585.03;5064859;28;20865;-52
2022/01/10 07:57:25;;;;;;;12.23;5.80;;;;;;;5.68;100.00;93587.72;5062714;28;20127;-54
2022/01/10 07:59:52;;;;;;;17.63;8.75;;;;;;;5.69;100.00;93589.28;5067913;28;20111;-53
2022/01/10 08:02:20;;;;;;;13.13;6.05;;;;;;;5.76;100.00;93595.09;5063865;28;20049;-53
2022/01/10 08:04:50;;;;;;;12.02;5.13;;;;;;;5.72;100.00;93584.44;5063929;28;20048;-53
2022/01/10 08:07:17;;;;;;;11.25;4.70;;;;;;;5.79;100.00;93594.63;5061443;28;20406;-56
2022/01/10 08:09:44;;;;;;;9.02;4.70;;;;;;;5.79;100.00;93597.22;5055967;28;20037;-56
2022/01/10 08:12:12;;;;;;;8.48;4.20;;;;;;;5.78;100.00;93582.75;5065050;28;20135;-55
2022/01/10 08:14:39;;;;;;;8.45;4.43;;;;;;;5.87;100.00;93596.84;5060814;28;20046;-56
2022/01/10 08:17:06;;;;;;;8.75;3.83;;;;;;;5.90;100.00;93595.59;5063028;28;20040;-56
2022/01/10 08:19:34;;;;;;;11.32;4.05;;;;;;;5.94;100.00;93592.34;5062851;28;20040;-55
2022/01/10 08:22:02;;;;;;;7.80;3.85;;;;;;;5.94;100.00;93592.34;5059266;28;20067;-55
2022/01/10 08:24:29;;;;;;;8.60;4.82;;;;;;;5.96;100.00;93583.56;5064338;28;20063;-53
2022/01/10 08:26:56;;;;;;;9.23;4.18;;;;;;;5.96;100.00;93592.13;5068475;28;20414;-54
2022/01/10 08:29:24;;;;;;;11.40;5.72;;;;;;;6.01;100.00;93596.59;5067234;28;20050;-55
2022/01/10 08:31:51;;;;;;;10.32;5.10;;;;;;;5.97;100.00;93595.50;5067029;28;20040;-56
2022/01/10 08:34:19;;;;;;;9.98;4.00;;;;;;;6.03;100.00;93592.78;5064064;28;20044;-56
2022/01/10 08:36:46;;;;;;;11.73;6.00;;;;;;;6.03;100.00;93597.94;5062704;28;20043;-55
2022/01/10 08:39:13;;;;;;;18.75;7.90;;;;;;;6.06;100.00;93599.28;5062922;28;20044;-55
2022/01/10 08:41:40;;;;;;;15.45;6.38;;;;;;;6.06;100.00;93599.28;5062528;28;20036;-55
2022/01/10 08:44:07;;;;;;;18.17;9.73;;;;;;;6.12;100.00;93598.31;5058779;28;20449;-55
2022/01/10 08:46:34;;;;;;;16.08;10.20;;;;;;;6.19;100.00;93598.19;5056141;28;20036;-54
2022/01/10 08:49:03;;;;;;;11.40;6.78;;;;;;;6.21;100.00;93602.13;5060540;28;20090;-55
2022/01/10 08:51:30;;;;;;;12.02;6.75;;;;;;;6.24;100.00;93601.63;5054714;28;20040;-56
2022/01/10 08:53:58;;;;;;;9.23;4.95;;;;;;;6.32;100.00;93603.84;5062800;28;20056;-55
2022/01/10 08:56:25;;;;;;;12.55;4.72;;;;;;;6.31;100.00;93606.66;5061834;28;20131;-53
2022/01/10 08:58:52;;;;;;;8.32;4.57;;;;;;;6.37;100.00;93610.13;5062117;28;20047;-51
2022/01/10 09:01:21;;;;;;;10.68;4.55;;;;;;;6.36;100.00;93598.22;5064813;28;20044;-53
2022/01/10 09:03:48;;;;;;;7.75;4.35;;;;;;;6.42;100.00;93602.44;5061466;28;20119;-56
2022/01/10 09:06:16;;;;;;;10.93;5.65;;;;;;;6.44;100.00;93600.41;5057727;28;20055;-54
2022/01/10 09:08:46;;;;;;;13.18;5.47;;;;;;;6.46;100.00;93604.34;5059615;28;20048;-55
2022/01/10 09:11:14;;;;;;;12.23;5.20;;;;;;;6.50;100.00;93604.66;5057949;28;20123;-56
2022/01/10 09:13:41;;;;;;;9.50;5.25;;;;;;;6.52;100.00;93600.03;5057621;28;20047;-56
2022/01/10 09:16:09;;;;;;;7.50;4.50;;;;;;;6.48;100.00;93601.50;5058846;28;20047;-56
2022/01/10 09:18:36;;;;;;;13.73;5.88;;;;;;;6.57;100.00;93610.47;5056167;28;20106;-56
2022/01/10 09:21:03;;;;;;;15.85;7.55;;;;;;;6.56;100.00;93614.03;5056809;28;20534;-55
2022/01/10 09:23:30;;;;;;;8.00;4.82;;;;;;;6.56;100.00;93614.03;5057984;28;20067;-56
2022/01/10 09:25:57;;;;;;;9.55;4.97;;;;;;;6.50;100.00;93609.81;5057156;28;20048;-55
2022/01/10 09:28:24;;;;;;;7.82;3.50;;;;;;;6.47;100.00;93605.13;5052833;28;20036;-54
2022/01/10 09:30:51;;;;;;;7.13;4.25;;;;;;;6.55;100.00;93606.53;5059964;28;20120;-56
2022/01/10 09:33:18;;;;;;;8.20;4.47;;;;;;;6.58;100.00;93609.41;5060764;28;20044;-57
2022/01/10 09:35:45;;;;;;;9.15;4.88;;;;;;;6.61;100.00;93614.13;5066099;28;20048;-51
2022/01/10 09:38:12;;;;;;;8.68;4.78;;;;;;;6.61;100.00;93610.75;5060056;28;20048;-55
2022/01/10 09:40:39;;;;;;;9.40;4.65;;;;;;;6.65;100.00;93607.47;5061046;28;20052;-56
2022/01/10 09:43:18;;;;;;;8.77;4.72;;;;;;;6.68;100.00;93609.59;5063242;28;20045;-56
2022/01/10 09:45:46;;;;;;;9.02;4.35;;;;;;;6.68;100.00;93604.41;5057731;28;20053;-56
2022/01/10 09:48:13;;;;;;;9.25;4.40;;;;;;;6.64;100.00;93611.06;5061499;28;20143;-55
2022/01/10 09:50:41;;;;;;;7.22;3.20;;;;;;;6.64;100.00;93605.88;5063466;28;20052;-55
2022/01/10 09:53:08;;;;;;;11.57;5.32;;;;;;;6.64;100.00;93610.28;5063864;28;20052;-56
2022/01/10 09:55:35;;;;;;;11.05;4.60;;;;;;;6.65;100.00;93609.28;5063824;28;20072;-56
2022/01/10 09:58:07;;;;;;;7.18;4.20;;;;;;;6.64;100.00;93605.88;5064455;28;20040;-56
2022/01/10 10:00:34;;;;;;;7.13;3.60;;;;;;;6.59;100.00;93603.25;5069620;28;20079;-52
2022/01/10 10:03:04;;;;;;;6.30;3.28;;;;;;;6.58;100.00;93609.41;5064407;28;20052;-55
2022/01/10 10:05:31;;;;;;;5.63;3.45;;;;;;;6.56;100.00;93608.88;5057035;28;20664;-56
2022/01/10 10:07:59;;;;;;;7.20;3.60;;;;;;;6.43;100.00;93609.19;5062667;28;20522;-55
2022/01/10 10:10:29;;;;;;;9.52;3.50;;;;;;;6.41;100.00;93617.19;5059575;28;20045;-55
2022/01/10 10:12:56;;;;;;;7.13;4.40;;;;;;;6.25;100.00;93608.38;5060653;28;20044;-56
2022/01/10 10:15:28;;;;;;;8.18;5.05;;;;;;;6.19;100.00;93598.97;5058611;28;20049;-56
2022/01/10 10:18:08;;;;;;;8.73;4.00;;;;;;;6.35;100.00;93601.81;5060487;28;20040;-56
2022/01/10 10:20:35;;;;;;;9.35;4.72;;;;;;;6.29;100.00;93608.72;5057205;28;20537;-55
2022/01/10 10:23:16;;;;;;;11.88;5.93;;;;;;;6.21;100.00;93591.78;5060643;28;20458;-57
2022/01/10 10:25:53;;;;;;;13.63;6.05;;;;;;;6.31;100.00;93617.78;5058842;28;20102;-57
2022/01/10 10:28:21;;;;;;;15.00;7.53;;;;;;;6.36;100.00;93614.50;5062612;28;20138;-56
2022/01/10 10:30:55;;;;;;;8.25;4.28;;;;;;;6.30;100.00;93610.25;5060032;28;20155;-56
2022/01/10 10:33:23;;;;;;;12.63;7.72;;;;;;;6.25;100.00;93613.56;5057338;28;20033;-56
2022/01/10 10:35:56;;;;;;;16.73;7.68;;;;;;;6.23;100.00;93613.00;5060886;28;20049;-55
2022/01/10 10:38:26;;;;;;;10.32;5.20;;;;;;;6.13;100.00;93611.03;5064794;28;20055;-56
2022/01/10 10:40:53;;;;;;;13.05;5.20;;;;;;;5.90;100.00;93600.78;5061897;28;20032;-56
2022/01/10 10:43:20;;;;;;;15.05;6.18;;;;;;;5.85;100.00;93609.22;5061859;28;20048;-55
2022/01/10 10:45:50;;;;;;;14.93;6.85;;;;;;;5.69;100.00;93612.53;5055893;28;20054;-56
2022/01/10 10:48:17;;;;;;;13.93;7.05;;;;;;;5.55;100.00;93607.63;5064862;28;20036;-54
2022/01/10 10:50:46;;;;;;;22.95;8.55;;;;;;;5.47;100.00;93607.97;5064881;28;20040;-52
2022/01/10 10:53:14;;;;;;;17.00;8.70;;;;;;;5.33;100.00;93604.88;5069049;28;20063;-53
2022/01/10 10:55:44;;;;;;;21.30;10.18;;;;;;;5.29;100.00;93600.41;5064892;28;20127;-53
2022/01/10 10:58:12;;;;;;;14.27;8.43;;;;;;;5.21;100.00;93605.94;5060051;28;20056;-55
2022/01/10 11:00:39;;;;;;;15.93;9.35;;;;;;;5.17;100.00;93608.97;5062866;28;20489;-53
2022/01/10 11:03:09;;;;;;;15.73;7.28;;;;;;;5.23;100.00;93609.84;5060642;28;20052;-55
2022/01/10 11:05:37;;;;;;;14.18;5.72;;;;;;;5.14;100.00;93614.56;5062184;28;20041;-55
2022/01/10 11:08:04;;;;;;;14.23;7.82;;;;;;;5.17;100.00;93619.28;5069294;28;20043;-56
2022/01/10 11:10:32;;;;;;;10.35;5.32;;;;;;;5.17;100.00;93624.44;5059449;28;20041;-54
2022/01/10 11:13:01;;;;;;;16.48;10.07;;;;;;;5.12;100.00;93616.59;5059483;28;20055;-52
2022/01/10 11:15:29;;;;;;;18.40;7.10;;;;;;;5.24;100.00;93620.94;5061884;28;20048;-54
2022/01/10 11:18:03;;;;;;;12.15;6.60;;;;;;;5.27;100.00;93634.19;5063754;28;20044;-55
2022/01/10 11:20:42;;;;;;;8.55;5.13;;;;;;;5.28;100.00;93635.00;5058549;28;20044;-52
2022/01/10 11:23:29;;;;;;;9.38;4.40;;;;;;;5.33;100.00;93627.31;5057387;28;20044;-52
2022/01/10 11:25:57;;;;;;;5.18;3.03;;;;;;;5.39;100.00;93636.75;5058717;28;20044;-52
2022/01/10 11:28:26;;;;;;;3.60;1.75;;;;;;;5.42;100.00;93641.47;5061687;28;20124;-51
2022/01/10 11:30:59;;;;;;;3.08;1.60;;;;;;;5.40;100.00;93638.31;5057512;28;20036;-52
2022/01/10 11:33:29;;;;;;;3.88;1.75;;;;;;;5.24;100.00;93639.00;5058829;28;20044;-54
2022/01/10 11:35:57;;;;;;;4.05;1.73;;;;;;;5.23;100.00;93645.19;5059911;28;20732;-53
2022/01/10 11:38:35;;;;;;;3.85;2.05;;;;;;;5.19;100.00;93644.09;5057748;28;20792;-53
2022/01/10 11:41:08;;;;;;;2.00;1.23;;;;;;;5.20;100.00;93637.91;5062405;28;20051;-51
2022/01/10 11:43:51;;;;;;;22.15;8.18;;;;;;;5.14;100.00;93637.78;5070496;28;20051;-52
2022/01/10 11:46:26;;;;;;;16.63;8.68;;;;;;;5.21;100.00;93642.06;5061037;28;20430;-55